Time;durP1;ratioP1;P1;durP2;ratioP2;P2;SDS_P1;SDS_P2;PMS_P1;PMS_P2;Temp;Humidity;BMP_temperature;BMP_pressure;BME280_temperature;BME280_humidity;BME280_pressure;Samples;Min_cycle;Max_cycle;Signal;HPM_P1;HPM_P2
2023/09/02 00:00:26;;;;;;;14.52;7.85;;;;;;;15.61;100.00;101372.09;5007889;28;20030;-78
2023/09/02 00:02:52;;;;;;;11.10;5.65;;;;;;;15.56;100.00;101359.56;5007685;28;20049;-76
2023/09/02 00:05:18;;;;;;;9.55;5.97;;;;;;;15.53;100.00;101365.94;5017308;28;20044;-76
2023/09/02 00:07:44;;;;;;;12.30;7.20;;;;;;;15.54;100.00;101364.94;5009467;28;20034;-76
2023/09/02 00:10:10;;;;;;;12.60;6.90;;;;;;;15.57;100.00;101359.34;5011529;28;20056;-76
2023/09/02 00:12:35;;;;;;;11.73;7.15;;;;;;;15.52;100.00;101353.88;5010585;28;20042;-76
2023/09/02 00:15:01;;;;;;;14.48;8.55;;;;;;;15.52;100.00;101351.25;5006213;28;20030;-77
2023/09/02 00:17:26;;;;;;;21.70;9.13;;;;;;;15.64;100.00;101346.41;5004953;28;20042;-77
2023/09/02 00:19:52;;;;;;;13.95;7.53;;;;;;;15.51;100.00;101354.84;5005500;28;20038;-76
2023/09/02 00:22:17;;;;;;;17.85;8.77;;;;;;;15.42;100.00;101355.06;5006047;28;20033;-76
2023/09/02 00:24:45;;;;;;;24.00;9.55;;;;;;;15.47;100.00;101363.22;5009539;28;20539;-78
2023/09/02 00:27:12;;;;;;;13.95;8.45;;;;;;;15.43;100.00;101367.97;5000394;28;20048;-76
2023/09/02 00:29:37;;;;;;;17.45;9.43;;;;;;;15.41;100.00;101369.94;5005081;28;20093;-77
2023/09/02 00:32:03;;;;;;;19.23;9.60;;;;;;;15.56;100.00;101368.19;5002101;28;20042;-76
2023/09/02 00:34:28;;;;;;;14.35;8.98;;;;;;;15.44;100.00;101379.22;5002361;28;20027;-76
2023/09/02 00:36:54;;;;;;;16.55;9.50;;;;;;;15.52;100.00;101380.00;5005476;28;20041;-75
2023/09/02 00:39:19;;;;;;;15.98;9.30;;;;;;;15.41;100.00;101376.94;5005245;28;20068;-76
2023/09/02 00:41:48;;;;;;;17.92;10.15;;;;;;;15.44;100.00;101377.41;5007446;28;20042;-77
2023/09/02 00:44:14;;;;;;;15.65;9.07;;;;;;;15.41;100.00;101375.19;5007138;28;20139;-77
2023/09/02 00:46:40;;;;;;;15.90;9.70;;;;;;;15.37;100.00;101379.13;5005482;28;20030;-76
2023/09/02 00:49:06;;;;;;;18.55;8.65;;;;;;;15.37;100.00;101379.13;5010441;28;20036;-76
2023/09/02 00:51:31;;;;;;;17.98;9.38;;;;;;;15.41;100.00;101379.56;5011244;28;20097;-76
2023/09/02 00:53:57;;;;;;;14.88;8.00;;;;;;;15.34;100.00;101380.25;5004530;28;20041;-76
2023/09/02 00:56:24;;;;;;;16.92;7.57;;;;;;;15.33;100.00;101386.50;5002914;28;20508;-76
2023/09/02 00:58:50;;;;;;;16.15;9.45;;;;;;;15.37;100.00;101385.16;5010357;28;20232;-78
2023/09/02 01:01:16;;;;;;;11.70;7.43;;;;;;;15.34;100.00;101384.69;5010143;28;20034;-76
2023/09/02 01:03:42;;;;;;;15.93;9.55;;;;;;;15.42;100.00;101392.47;5010166;28;20033;-76
2023/09/02 01:06:08;;;;;;;10.30;7.47;;;;;;;15.38;100.00;101384.16;5003820;28;20053;-77
2023/09/02 01:08:34;;;;;;;14.45;8.13;;;;;;;15.40;100.00;101388.41;5009368;28;20058;-76
2023/09/02 01:11:00;;;;;;;16.25;8.60;;;;;;;15.41;100.00;101387.41;5009918;28;20477;-76
2023/09/02 01:13:28;;;;;;;17.35;9.40;;;;;;;15.36;100.00;101385.31;5013796;28;20041;-78
2023/09/02 01:15:54;;;;;;;10.40;7.63;;;;;;;15.35;100.00;101392.34;5012556;28;20037;-76
2023/09/02 01:18:29;;;;;;;17.10;7.72;;;;;;;15.33;100.00;101394.34;5013348;28;20033;-76
2023/09/02 01:21:19;;;;;;;14.07;7.90;;;;;;;15.36;100.00;101396.59;5006173;28;20459;-78
2023/09/02 01:24:03;;;;;;;17.45;9.38;;;;;;;15.32;100.00;101399.72;5006014;28;20030;-76
2023/09/02 01:26:50;;;;;;;22.33;10.23;;;;;;;15.37;100.00;101402.66;5024357;28;20159;-77
2023/09/02 01:29:20;;;;;;;13.43;9.73;;;;;;;15.28;100.00;101395.84;5011532;28;20022;-76
2023/09/02 01:31:47;;;;;;;14.48;9.38;;;;;;;15.32;100.00;101400.53;5009496;28;20049;-76
2023/09/02 01:34:16;;;;;;;14.50;8.88;;;;;;;15.30;100.00;101407.72;4989270;28;20040;-76
2023/09/02 01:36:43;;;;;;;15.75;9.45;;;;;;;15.32;100.00;101399.72;5012035;28;20044;-76
2023/09/02 01:39:10;;;;;;;19.63;10.43;;;;;;;15.29;100.00;101393.03;5006800;28;20034;-77
2023/09/02 01:41:36;;;;;;;14.07;8.95;;;;;;;15.25;100.00;101396.97;5007034;28;20116;-77
2023/09/02 01:44:03;;;;;;;13.20;9.40;;;;;;;15.27;100.00;101391.59;5011159;28;20176;-75
2023/09/02 01:46:28;;;;;;;14.45;8.27;;;;;;;15.22;100.00;101402.56;5014010;28;20595;-76
2023/09/02 01:48:54;;;;;;;18.27;8.18;;;;;;;15.24;100.00;101404.97;5007432;28;20037;-76
2023/09/02 01:51:20;;;;;;;16.50;8.35;;;;;;;15.27;100.00;101394.19;5010086;28;20080;-76
2023/09/02 01:53:46;;;;;;;12.57;8.48;;;;;;;15.21;100.00;101402.72;5014737;28;20419;-76
2023/09/02 01:56:12;;;;;;;16.42;8.40;;;;;;;15.22;100.00;101402.56;5011494;28;20044;-76
2023/09/02 01:58:37;;;;;;;14.27;7.88;;;;;;;15.16;100.00;101406.69;5013052;28;20040;-76
2023/09/02 02:01:03;;;;;;;10.80;7.40;;;;;;;15.14;100.00;101411.25;4998422;28;20038;-76
2023/09/02 02:03:40;;;;;;;9.45;6.63;;;;;;;15.12;100.00;101420.22;5006072;28;20037;-77
2023/09/02 02:06:11;;;;;;;13.75;7.75;;;;;;;15.13;100.00;101419.25;5010156;28;20043;-76
2023/09/02 02:08:46;;;;;;;16.35;8.00;;;;;;;15.12;100.00;101412.41;5006109;28;20031;-75
2023/09/02 02:11:13;;;;;;;17.52;8.18;;;;;;;15.16;100.00;101409.28;5008367;28;20044;-75
2023/09/02 02:13:39;;;;;;;14.00;7.95;;;;;;;15.13;100.00;101407.00;5005338;28;20037;-74
2023/09/02 02:16:05;;;;;;;13.93;7.80;;;;;;;15.14;100.00;101410.41;5011025;28;20038;-77
2023/09/02 02:18:31;;;;;;;20.15;8.25;;;;;;;15.12;100.00;101407.97;5008843;28;20034;-76
2023/09/02 02:21:02;;;;;;;15.73;8.23;;;;;;;15.09;100.00;101410.16;5005348;28;20033;-76
2023/09/02 02:23:28;;;;;;;18.55;8.82;;;;;;;15.17;100.00;101412.69;5008421;28;20546;-75
2023/09/02 02:25:59;;;;;;;11.80;7.97;;;;;;;15.12;100.00;101412.41;5007263;28;20046;-75
2023/09/02 02:28:24;;;;;;;14.55;7.30;;;;;;;15.09;100.00;101416.19;5007115;28;20056;-76
2023/09/02 02:30:49;;;;;;;16.08;7.60;;;;;;;14.97;100.00;101415.75;5007590;28;20049;-76
2023/09/02 02:33:15;;;;;;;17.00;7.75;;;;;;;14.96;100.00;101419.31;4989967;28;20037;-76
2023/09/02 02:35:40;;;;;;;10.77;7.20;;;;;;;14.97;100.00;101420.13;5009142;28;20033;-77
2023/09/02 02:38:06;;;;;;;18.17;7.85;;;;;;;14.99;100.00;101421.59;5008993;28;20056;-75
2023/09/02 02:40:31;;;;;;;15.57;7.30;;;;;;;15.02;100.00;101427.47;5011075;28;20030;-75
2023/09/02 02:42:57;;;;;;;12.55;7.07;;;;;;;14.96;100.00;101418.53;5011741;28;20041;-76
2023/09/02 02:45:22;;;;;;;14.05;6.93;;;;;;;14.91;100.00;101420.81;4993586;28;20033;-77
2023/09/02 02:47:48;;;;;;;10.70;7.03;;;;;;;14.84;100.00;101423.28;5008644;28;20291;-77
2023/09/02 02:50:13;;;;;;;10.82;6.25;;;;;;;14.81;100.00;101428.84;5007997;28;20029;-77
2023/09/02 02:52:41;;;;;;;10.82;7.18;;;;;;;14.81;100.00;101439.28;5004009;28;20034;-76
2023/09/02 02:55:07;;;;;;;7.40;5.72;;;;;;;14.77;100.00;101444.03;5019130;28;20488;-76
2023/09/02 02:57:32;;;;;;;13.98;7.50;;;;;;;14.83;100.00;101433.91;5017895;28;20488;-77
2023/09/02 02:59:58;;;;;;;11.38;6.50;;;;;;;14.73;100.00;101442.75;4998194;28;20084;-76
2023/09/02 03:02:23;;;;;;;12.02;7.55;;;;;;;14.76;100.00;101438.97;5005582;28;20030;-76
2023/09/02 03:04:49;;;;;;;11.43;7.70;;;;;;;14.84;100.00;101445.97;4993483;28;20045;-76
2023/09/02 03:07:15;;;;;;;9.55;6.82;;;;;;;14.76;100.00;101441.59;5007859;28;20500;-76
2023/09/02 03:09:42;;;;;;;15.52;6.68;;;;;;;14.67;100.00;101434.75;5007035;28;20061;-77
2023/09/02 03:12:08;;;;;;;13.38;7.22;;;;;;;14.73;100.00;101436.69;4999704;28;20042;-75
2023/09/02 03:14:34;;;;;;;12.55;7.47;;;;;;;14.70;100.00;101444.88;5012296;28;20088;-76
2023/09/02 03:17:01;;;;;;;11.43;6.55;;;;;;;14.65;100.00;101442.75;5006894;28;20046;-76
2023/09/02 03:19:27;;;;;;;10.93;6.72;;;;;;;14.61;100.00;101451.91;5007508;28;20092;-76
2023/09/02 03:21:52;;;;;;;17.50;7.35;;;;;;;14.62;100.00;101447.50;5005280;28;20104;-76
2023/09/02 03:24:20;;;;;;;11.15;7.20;;;;;;;14.58;100.00;101453.06;5001720;28;20061;-77
2023/09/02 03:26:46;;;;;;;12.63;7.55;;;;;;;14.58;100.00;101455.66;5005996;28;20504;-76
2023/09/02 03:29:12;;;;;;;13.32;7.82;;;;;;;14.67;100.00;101451.22;4988958;28;20029;-76
2023/09/02 03:31:37;;;;;;;11.00;6.75;;;;;;;14.60;100.00;101448.47;5007182;28;20049;-76
2023/09/02 03:34:03;;;;;;;14.43;7.13;;;;;;;14.58;100.00;101437.41;5011205;28;20030;-76
2023/09/02 03:36:30;;;;;;;13.65;7.28;;;;;;;14.63;100.00;101436.88;5008252;28;20397;-77
2023/09/02 03:38:55;;;;;;;13.45;7.15;;;;;;;14.56;100.00;101436.72;4998216;28;20053;-75
2023/09/02 03:41:23;;;;;;;10.85;6.28;;;;;;;14.53;100.00;101439.66;5005799;28;20037;-75
2023/09/02 03:43:48;;;;;;;11.85;6.25;;;;;;;14.59;100.00;101440.81;5011250;28;20041;-75
2023/09/02 03:46:15;;;;;;;12.02;6.13;;;;;;;14.54;100.00;101441.31;5005845;28;20815;-76
2023/09/02 03:48:42;;;;;;;12.45;6.35;;;;;;;14.50;100.00;101439.16;5008793;28;20030;-77
2023/09/02 03:51:12;;;;;;;15.70;6.35;;;;;;;14.50;100.00;101442.59;4986546;28;20029;-76
2023/09/02 03:53:39;;;;;;;10.13;6.22;;;;;;;14.44;100.00;101440.66;4991799;28;20046;-76
2023/09/02 03:56:05;;;;;;;8.68;5.85;;;;;;;14.49;100.00;101440.16;5013650;28;20476;-76
2023/09/02 03:58:33;;;;;;;8.75;5.65;;;;;;;14.38;100.00;101443.94;5007484;28;20133;-76
2023/09/02 04:00:59;;;;;;;12.60;6.20;;;;;;;14.40;100.00;101455.00;4996987;28;20046;-76
2023/09/02 04:03:26;;;;;;;13.85;6.82;;;;;;;14.38;100.00;101451.75;5011566;28;20428;-75
2023/09/02 04:05:52;;;;;;;11.60;6.47;;;;;;;14.38;100.00;101452.56;5009257;28;20054;-76
2023/09/02 04:08:21;;;;;;;15.20;6.55;;;;;;;14.31;100.00;101446.38;5008568;28;20030;-76
2023/09/02 04:10:51;;;;;;;15.13;6.30;;;;;;;14.38;100.00;101447.34;5009872;28;20029;-78
2023/09/02 04:13:21;;;;;;;7.70;5.13;;;;;;;14.32;100.00;101444.59;5006014;28;20120;-76
2023/09/02 04:15:46;;;;;;;11.88;6.88;;;;;;;14.33;100.00;101441.78;5009635;28;20030;-76
2023/09/02 04:18:12;;;;;;;12.30;6.63;;;;;;;14.38;100.00;101442.13;5009785;28;20026;-76
2023/09/02 04:20:38;;;;;;;11.13;6.95;;;;;;;14.30;100.00;101443.94;5002934;28;20481;-76
2023/09/02 04:23:03;;;;;;;10.80;6.65;;;;;;;14.24;100.00;101450.63;5003562;28;20033;-76
2023/09/02 04:25:29;;;;;;;9.77;5.93;;;;;;;14.20;100.00;101452.75;5004520;28;20022;-76
2023/09/02 04:27:55;;;;;;;11.70;5.70;;;;;;;14.18;100.00;101452.09;4988449;28;20530;-75
2023/09/02 04:30:22;;;;;;;12.00;6.30;;;;;;;14.15;100.00;101452.41;5007742;28;20037;-77
2023/09/02 04:32:49;;;;;;;13.55;7.70;;;;;;;14.20;100.00;101463.19;5006418;28;20042;-76
2023/09/02 04:35:15;;;;;;;13.98;7.72;;;;;;;14.16;100.00;101469.69;5006193;28;20472;-76
2023/09/02 04:37:41;;;;;;;13.10;6.97;;;;;;;14.15;100.00;101464.66;5010614;28;20040;-77
2023/09/02 04:40:07;;;;;;;12.60;7.28;;;;;;;14.08;100.00;101469.69;5014913;28;20124;-77
2023/09/02 04:42:33;;;;;;;10.82;7.38;;;;;;;14.07;100.00;101472.47;5011599;28;20400;-77
2023/09/02 04:44:59;;;;;;;15.45;7.40;;;;;;;14.06;100.00;101474.25;5014416;28;20026;-77
2023/09/02 04:47:25;;;;;;;12.93;7.20;;;;;;;14.23;100.00;101459.44;5009018;28;20034;-76
2023/09/02 04:49:51;;;;;;;12.65;7.60;;;;;;;14.13;100.00;101471.84;4997688;28;20029;-77
2023/09/02 04:52:19;;;;;;;16.35;7.07;;;;;;;14.09;100.00;101479.16;5011755;28;20553;-77
2023/09/02 04:54:45;;;;;;;15.32;6.97;;;;;;;14.06;100.00;101481.28;5009433;28;20036;-76
2023/09/02 04:57:11;;;;;;;21.27;7.63;;;;;;;14.09;100.00;101481.78;5010101;28;20038;-76
2023/09/02 04:59:38;;;;;;;17.45;8.05;;;;;;;14.13;100.00;101487.47;5026322;28;20026;-77
2023/09/02 05:02:05;;;;;;;11.45;6.97;;;;;;;14.05;100.00;101485.66;4998253;28;20061;-77
2023/09/02 05:04:31;;;;;;;9.98;6.40;;;;;;;14.02;100.00;101483.38;4999091;28;20029;-77
2023/09/02 05:06:56;;;;;;;14.55;7.50;;;;;;;14.01;100.00;101485.19;4978725;28;20037;-78
2023/09/02 05:09:22;;;;;;;12.55;7.32;;;;;;;14.05;100.00;101487.44;5011434;28;20034;-76
2023/09/02 05:11:48;;;;;;;14.30;8.68;;;;;;;14.06;100.00;101482.09;5006886;28;20036;-76
2023/09/02 05:14:14;;;;;;;15.10;8.63;;;;;;;14.29;100.00;101489.25;4994831;28;20029;-75
2023/09/02 05:16:39;;;;;;;15.38;8.85;;;;;;;14.19;100.00;101485.00;5031557;28;20044;-76
2023/09/02 05:19:05;;;;;;;13.07;7.82;;;;;;;14.20;100.00;101485.81;5010791;28;20056;-77
2023/09/02 05:21:30;;;;;;;12.80;8.27;;;;;;;14.17;100.00;101486.97;5012466;28;20373;-76
2023/09/02 05:23:56;;;;;;;15.63;8.25;;;;;;;14.22;100.00;101481.25;4996521;28;20037;-76
2023/09/02 05:26:22;;;;;;;19.30;8.60;;;;;;;14.18;100.00;101496.44;5014064;28;21018;-76
2023/09/02 05:28:47;;;;;;;14.68;8.88;;;;;;;14.16;100.00;101497.56;5008292;28;20085;-78
2023/09/02 05:31:12;;;;;;;17.85;8.88;;;;;;;14.21;100.00;101498.72;5003213;28;20092;-76
2023/09/02 05:33:38;;;;;;;17.00;9.05;;;;;;;14.22;100.00;101496.91;5017155;28;20515;-76
2023/09/02 05:36:04;;;;;;;17.63;10.63;;;;;;;14.36;100.00;101496.25;5010455;28;20042;-75
2023/09/02 05:38:29;;;;;;;16.85;8.95;;;;;;;14.30;100.00;101503.94;5014976;28;20057;-77
2023/09/02 05:40:55;;;;;;;14.20;8.90;;;;;;;14.32;100.00;101508.00;5008982;28;20042;-79
2023/09/02 05:43:20;;;;;;;22.35;10.02;;;;;;;14.33;100.00;101516.63;5009889;28;20049;-78
2023/09/02 05:45:47;;;;;;;23.50;9.55;;;;;;;14.39;100.00;101516.81;5012842;28;20030;-76
2023/09/02 05:48:12;;;;;;;17.10;9.70;;;;;;;14.46;100.00;101510.94;5015963;28;20416;-76
2023/09/02 05:50:38;;;;;;;17.60;10.93;;;;;;;14.48;100.00;101517.59;5012180;28;20037;-76
2023/09/02 05:53:03;;;;;;;15.20;8.70;;;;;;;14.46;100.00;101516.97;5014608;28;20505;-76
2023/09/02 05:55:29;;;;;;;16.90;9.27;;;;;;;14.55;100.00;101518.59;5009491;28;20057;-76
2023/09/02 05:57:54;;;;;;;17.05;9.45;;;;;;;14.61;100.00;101514.53;5009738;28;20038;-76
2023/09/02 06:00:20;;;;;;;15.90;9.27;;;;;;;14.62;100.00;101518.78;5007023;28;20033;-76
2023/09/02 06:02:45;;;;;;;16.27;9.93;;;;;;;14.63;100.00;101522.22;5008569;28;20050;-75
2023/09/02 06:05:11;;;;;;;17.92;10.27;;;;;;;14.60;100.00;101523.38;5009488;28;20034;-76
2023/09/02 06:07:36;;;;;;;13.95;8.35;;;;;;;14.68;100.00;101525.94;5013792;28;20042;-76
2023/09/02 06:10:02;;;;;;;15.85;8.32;;;;;;;14.63;100.00;101528.22;5009427;28;20072;-76
2023/09/02 06:12:27;;;;;;;12.00;7.70;;;;;;;14.64;100.00;101531.69;5015128;28;20121;-76
2023/09/02 06:14:53;;;;;;;16.45;9.27;;;;;;;14.72;100.00;101537.69;5012606;28;20041;-75
2023/09/02 06:17:18;;;;;;;12.98;8.27;;;;;;;14.75;100.00;101536.56;5009608;28;20065;-76
2023/09/02 06:19:44;;;;;;;15.95;9.02;;;;;;;14.70;100.00;101533.63;5007521;28;20038;-76
2023/09/02 06:22:10;;;;;;;18.75;9.18;;;;;;;14.71;100.00;101538.69;5008894;28;20045;-74
2023/09/02 06:24:36;;;;;;;12.90;8.90;;;;;;;14.74;100.00;101540.13;5012051;28;20507;-76
2023/09/02 06:27:03;;;;;;;18.63;8.93;;;;;;;14.68;100.00;101538.19;5008596;28;20045;-75
2023/09/02 06:29:35;;;;;;;18.52;9.30;;;;;;;14.81;100.00;101548.94;5012264;28;20036;-75
2023/09/02 06:32:00;;;;;;;14.55;9.00;;;;;;;14.82;100.00;101544.53;5007769;28;20036;-76
2023/09/02 06:34:27;;;;;;;16.38;8.38;;;;;;;14.84;100.00;101542.56;5011539;28;20022;-76
2023/09/02 06:36:53;;;;;;;16.58;10.20;;;;;;;14.94;100.00;101549.25;5009407;28;20034;-76
2023/09/02 06:39:18;;;;;;;17.77;9.82;;;;;;;14.92;100.00;101545.19;5009693;28;20034;-76
2023/09/02 06:41:44;;;;;;;15.45;9.35;;;;;;;14.96;100.00;101549.88;5007741;28;20408;-76
2023/09/02 06:44:11;;;;;;;15.30;9.57;;;;;;;15.01;100.00;101551.19;4976176;28;20033;-75
2023/09/02 06:46:38;;;;;;;12.90;8.15;;;;;;;14.98;100.00;101558.38;5011324;28;20041;-74
2023/09/02 06:49:05;;;;;;;11.18;7.75;;;;;;;15.01;100.00;101562.44;5006908;28;20033;-76
2023/09/02 06:51:31;;;;;;;15.77;8.40;;;;;;;15.13;100.00;101565.53;5014178;28;20042;-76
2023/09/02 06:53:56;;;;;;;13.65;8.30;;;;;;;15.15;100.00;101572.22;5011107;28;20041;-76
2023/09/02 06:56:22;;;;;;;15.00;7.82;;;;;;;15.11;100.00;101570.91;5003753;28;20037;-77
2023/09/02 06:58:49;;;;;;;14.30;8.93;;;;;;;15.17;100.00;101570.25;5009135;28;20037;-76
2023/09/02 07:01:16;;;;;;;13.40;8.10;;;;;;;15.20;100.00;101574.34;5003677;28;20629;-75
2023/09/02 07:03:42;;;;;;;14.43;8.43;;;;;;;15.27;100.00;101572.66;5006994;28;20072;-76
2023/09/02 07:06:08;;;;;;;12.68;8.68;;;;;;;15.35;100.00;101579.66;5011157;28;20041;-76
2023/09/02 07:08:34;;;;;;;11.65;7.95;;;;;;;15.47;100.00;101575.69;5008609;28;20048;-75
2023/09/02 07:10:59;;;;;;;14.27;8.95;;;;;;;15.48;100.00;101568.66;5009451;28;20034;-76
2023/09/02 07:13:25;;;;;;;16.00;9.43;;;;;;;15.56;100.00;101576.50;5006373;28;20029;-76
2023/09/02 07:16:00;;;;;;;14.80;9.13;;;;;;;15.56;100.00;101581.72;5006260;28;20030;-76
2023/09/02 07:18:26;;;;;;;15.77;8.70;;;;;;;15.64;100.00;101584.28;4988251;28;20046;-76
2023/09/02 07:20:51;;;;;;;15.70;9.00;;;;;;;15.70;100.00;101588.03;5011385;28;20516;-76
2023/09/02 07:23:17;;;;;;;20.55;8.93;;;;;;;15.79;100.00;101596.69;5005299;28;20083;-76
2023/09/02 07:25:42;;;;;;;14.50;9.35;;;;;;;15.85;100.00;101596.81;5011432;28;20042;-76
2023/09/02 07:28:08;;;;;;;16.60;10.38;;;;;;;15.97;100.00;101589.38;5007892;28;20038;-78
2023/09/02 07:30:37;;;;;;;15.52;9.68;;;;;;;16.05;100.00;101598.97;5005063;28;20037;-76
2023/09/02 07:33:03;;;;;;;17.73;9.25;;;;;;;16.13;100.00;101610.22;5007601;28;20484;-76
2023/09/02 07:35:28;;;;;;;18.73;10.52;;;;;;;16.19;100.00;101613.13;5010212;28;20129;-76
2023/09/02 07:37:54;;;;;;;17.67;9.60;;;;;;;16.25;100.00;101617.66;5005437;28;20026;-74
2023/09/02 07:40:19;;;;;;;18.92;9.82;;;;;;;16.19;100.00;101620.97;5008784;28;20986;-75
2023/09/02 07:42:45;;;;;;;16.38;10.32;;;;;;;16.15;100.00;101628.34;5003872;28;20065;-76
2023/09/02 07:45:11;;;;;;;14.82;9.73;;;;;;;16.21;100.00;101634.69;5007150;28;20500;-76
2023/09/02 07:47:37;;;;;;;14.75;9.40;;;;;;;16.25;100.00;101649.88;5004344;28;20124;-75
2023/09/02 07:50:02;;;;;;;15.93;9.18;;;;;;;16.21;100.00;101645.16;5005812;28;20042;-76
2023/09/02 07:52:29;;;;;;;19.75;9.65;;;;;;;16.36;100.00;101648.66;5007722;28;20041;-75
2023/09/02 07:54:55;;;;;;;14.05;9.30;;;;;;;16.39;100.00;101644.88;5006345;28;20045;-75
2023/09/02 07:57:20;;;;;;;20.63;10.38;;;;;;;16.40;100.00;101649.94;5005189;28;20480;-76
2023/09/02 07:59:46;;;;;;;15.43;9.38;;;;;;;16.54;100.00;101643.16;5005954;28;20100;-75
2023/09/02 08:02:11;;;;;;;20.33;10.52;;;;;;;16.54;100.00;101640.53;5008665;28;20045;-77
2023/09/02 08:04:36;;;;;;;17.77;9.38;;;;;;;16.57;100.00;101650.66;5013641;28;20481;-76
2023/09/02 08:07:02;;;;;;;16.92;9.90;;;;;;;16.64;100.00;101651.56;5006144;28;20600;-76
2023/09/02 08:09:27;;;;;;;15.90;9.30;;;;;;;16.83;100.00;101644.28;5010727;28;20033;-76
2023/09/02 08:11:53;;;;;;;16.27;10.02;;;;;;;16.85;100.00;101650.94;5010512;28;20117;-76
2023/09/02 08:14:18;;;;;;;11.90;8.40;;;;;;;16.93;100.00;101650.06;5015608;28;20080;-76
2023/09/02 08:16:44;;;;;;;16.90;9.48;;;;;;;17.18;100.00;101647.22;5005606;28;20491;-77
2023/09/02 08:19:09;;;;;;;17.73;9.93;;;;;;;17.38;100.00;101653.56;5013842;28;20048;-76
2023/09/02 08:21:35;;;;;;;23.08;9.90;;;;;;;17.53;100.00;101658.81;5008366;28;20486;-77
2023/09/02 08:24:00;;;;;;;13.40;8.95;;;;;;;17.61;100.00;101663.97;5008159;28;20034;-77
2023/09/02 08:26:26;;;;;;;15.75;8.73;;;;;;;17.77;100.00;101667.41;5016977;28;22165;-77
2023/09/02 08:28:51;;;;;;;13.90;9.38;;;;;;;17.94;100.00;101674.09;5013034;28;20034;-77
2023/09/02 08:31:23;;;;;;;14.15;9.23;;;;;;;18.03;100.00;101666.94;5012148;28;20041;-76
2023/09/02 08:33:48;;;;;;;18.00;10.77;;;;;;;17.95;100.00;101670.47;5009205;28;20057;-77
2023/09/02 08:36:15;;;;;;;15.38;9.65;;;;;;;18.03;100.00;101666.94;5013328;28;20099;-77
2023/09/02 08:38:40;;;;;;;17.55;8.95;;;;;;;18.12;100.00;101671.09;5010881;28;20060;-76
2023/09/02 08:41:06;;;;;;;14.35;8.65;;;;;;;18.20;100.00;101675.41;5015384;28;20045;-78
2023/09/02 08:43:32;;;;;;;13.43;7.88;;;;;;;18.44;100.00;101667.19;5024343;28;20033;-77
2023/09/02 08:46:00;;;;;;;17.20;8.93;;;;;;;18.71;100.00;101675.31;5009973;28;20046;-77
2023/09/02 08:48:32;;;;;;;14.70;9.50;;;;;;;18.93;100.00;101680.56;5010996;28;20045;-77
2023/09/02 08:50:57;;;;;;;21.92;10.85;;;;;;;18.97;100.00;101674.75;5011788;28;20046;-77
2023/09/02 08:53:25;;;;;;;16.98;9.95;;;;;;;19.04;100.00;101678.25;5019893;28;20029;-78
2023/09/02 08:55:51;;;;;;;16.30;9.95;;;;;;;19.13;100.00;101671.00;5012201;28;20489;-78
2023/09/02 08:58:17;;;;;;;15.13;9.93;;;;;;;19.05;100.00;101671.16;5028219;28;20026;-76
2023/09/02 09:00:44;;;;;;;15.23;8.35;;;;;;;19.15;100.00;101671.63;5011831;28;20693;-76
2023/09/02 09:03:11;;;;;;;23.23;10.50;;;;;;;19.34;100.00;101656.97;5014305;28;20732;-76
2023/09/02 09:05:42;;;;;;;14.18;9.18;;;;;;;19.50;100.00;101657.69;5016793;28;20041;-77
2023/09/02 09:08:09;;;;;;;13.27;8.20;;;;;;;19.55;100.00;101669.25;5015547;28;20053;-77
2023/09/02 09:10:36;;;;;;;14.05;8.38;;;;;;;19.68;100.00;101662.41;5011485;28;20038;-77
2023/09/02 09:13:05;;;;;;;15.90;9.10;;;;;;;19.72;100.00;101667.16;5014377;28;20132;-78
2023/09/02 09:15:34;;;;;;;14.32;8.98;;;;;;;19.75;100.00;101661.47;5011547;28;20061;-77
2023/09/02 09:18:01;;;;;;;15.68;9.75;;;;;;;19.91;100.00;101662.13;5010345;28;20116;-77
2023/09/02 09:20:27;;;;;;;14.15;9.02;;;;;;;20.13;100.00;101661.00;5013493;28;20044;-77
2023/09/02 09:22:52;;;;;;;15.85;9.45;;;;;;;20.47;100.00;101664.50;5011278;28;20066;-77
2023/09/02 09:25:20;;;;;;;13.57;8.13;;;;;;;20.66;99.22;101657.66;5013510;28;20040;-77
2023/09/02 09:27:45;;;;;;;13.90;7.72;;;;;;;20.88;98.23;101668.81;5010131;28;20045;-77
2023/09/02 09:30:30;;;;;;;13.80;9.48;;;;;;;21.14;92.59;101664.53;5010210;28;20037;-77
2023/09/02 09:33:04;;;;;;;10.50;7.45;;;;;;;21.13;94.13;101671.63;5011590;28;20128;-78
2023/09/02 09:35:30;;;;;;;14.98;8.23;;;;;;;21.10;95.44;101679.16;5009648;28;20109;-76
2023/09/02 09:37:56;;;;;;;13.15;9.35;;;;;;;21.12;93.31;101677.94;5010753;28;20129;-77
2023/09/02 09:40:31;;;;;;;16.42;9.70;;;;;;;21.08;94.13;101667.97;5017804;28;20388;-77
2023/09/02 09:43:02;;;;;;;13.60;9.45;;;;;;;21.04;95.39;101685.22;5023497;28;20117;-77
2023/09/02 09:45:29;;;;;;;14.27;9.52;;;;;;;21.03;97.07;101678.34;5011163;28;20099;-77
2023/09/02 09:48:08;;;;;;;15.32;9.45;;;;;;;20.99;94.66;101684.00;5013697;28;20058;-77
2023/09/02 09:50:33;;;;;;;13.00;8.10;;;;;;;20.94;94.38;101689.06;5016071;28;20316;-79
2023/09/02 09:53:01;;;;;;;12.43;8.30;;;;;;;20.92;95.67;101682.41;5011423;28;20042;-77
2023/09/02 09:55:29;;;;;;;11.80;8.02;;;;;;;20.88;96.21;101694.38;5015370;28;20034;-77
2023/09/02 09:57:55;;;;;;;13.93;7.88;;;;;;;20.99;96.68;101685.84;5010076;28;20039;-77
2023/09/02 10:00:21;;;;;;;16.52;8.85;;;;;;;20.94;96.46;101698.81;5015397;28;20160;-78
2023/09/02 10:02:54;;;;;;;12.43;9.45;;;;;;;21.02;97.00;101698.63;5010675;28;20177;-78
2023/09/02 10:05:25;;;;;;;16.27;8.75;;;;;;;21.02;96.16;101697.81;5015959;28;20022;-78
2023/09/02 10:08:07;;;;;;;12.27;7.65;;;;;;;21.11;96.02;101705.28;5007356;28;20039;-77
2023/09/02 10:10:38;;;;;;;12.77;8.20;;;;;;;21.13;95.09;101711.16;5016509;28;20496;-78
2023/09/02 10:13:04;;;;;;;10.65;7.00;;;;;;;21.32;95.68;101706.09;5009642;28;20092;-78
2023/09/02 10:15:31;;;;;;;11.27;6.97;;;;;;;21.50;95.92;101702.84;5012615;28;20034;-77
2023/09/02 10:18:01;;;;;;;8.40;5.78;;;;;;;21.71;94.66;101712.31;4996598;28;20042;-79
2023/09/02 10:20:29;;;;;;;10.90;7.38;;;;;;;21.78;92.70;101711.28;5000574;28;20038;-78
2023/09/02 10:23:01;;;;;;;9.85;6.20;;;;;;;21.87;93.41;101708.41;5011945;28;20129;-77
2023/09/02 10:25:29;;;;;;;11.77;7.00;;;;;;;22.27;89.91;101705.63;5015659;28;20037;-77
2023/09/02 10:28:05;;;;;;;14.68;7.63;;;;;;;22.54;90.65;101707.03;5007843;28;20093;-77
2023/09/02 10:30:46;;;;;;;11.98;6.70;;;;;;;23.00;90.85;101705.09;5016089;28;20030;-77
2023/09/02 10:33:22;;;;;;;8.98;5.65;;;;;;;23.20;86.34;101701.47;5012458;28;20049;-77
2023/09/02 10:35:57;;;;;;;12.65;7.03;;;;;;;23.00;86.79;101709.53;5004677;28;20092;-78
2023/09/02 10:38:24;;;;;;;10.00;6.05;;;;;;;22.97;86.16;101715.28;5027952;28;20048;-78
2023/09/02 10:41:01;;;;;;;10.68;6.32;;;;;;;23.05;87.87;101721.13;5013530;28;20033;-78
2023/09/02 10:43:27;;;;;;;9.80;5.68;;;;;;;23.04;87.44;101726.66;5009285;28;20041;-78
2023/09/02 10:45:53;;;;;;;13.02;6.30;;;;;;;23.04;88.13;101735.38;5014406;28;20049;-78
2023/09/02 10:48:19;;;;;;;9.07;5.55;;;;;;;23.24;88.39;101739.69;5010214;28;20022;-78
2023/09/02 10:50:45;;;;;;;9.68;6.78;;;;;;;23.43;88.17;101735.22;5012251;28;20033;-77
2023/09/02 10:53:10;;;;;;;11.93;6.63;;;;;;;23.48;84.72;101728.25;5013819;28;20094;-78
2023/09/02 10:55:59;;;;;;;13.18;7.95;;;;;;;23.32;84.93;101731.50;5011720;28;20033;-77
2023/09/02 10:58:25;;;;;;;17.05;9.82;;;;;;;23.13;85.51;101725.31;5007468;28;20037;-78
2023/09/02 11:00:52;;;;;;;11.25;7.35;;;;;;;23.06;86.52;101728.03;5008285;28;20032;-78
2023/09/02 11:03:45;;;;;;;13.13;7.20;;;;;;;23.22;85.25;101721.38;5011992;28;20100;-78
2023/09/02 11:06:14;;;;;;;12.00;7.85;;;;;;;23.46;83.11;101725.00;5011394;28;20034;-78
2023/09/02 11:08:41;;;;;;;12.82;7.65;;;;;;;23.50;83.57;101723.53;5013443;28;20500;-78